createdAt,value
2018-11-21T00:00:36.603Z,70.70
2018-11-21T00:03:05.392Z,72.95
2018-11-21T00:05:34.688Z,70.17
2018-11-21T00:08:03.927Z,67.95
2018-11-21T00:10:32.971Z,68.40
2018-11-21T00:13:02.469Z,69.42
2018-11-21T00:15:31.409Z,71.28
2018-11-21T00:18:00.080Z,67.10
2018-11-21T00:20:29.117Z,63.95
2018-11-21T00:22:58.131Z,70.10
2018-11-21T00:25:27.068Z,63.80
2018-11-21T00:27:56.081Z,60.28
2018-11-21T00:30:25.054Z,68.42
2018-11-21T00:32:54.094Z,67.17
2018-11-21T00:35:22.755Z,68.55
2018-11-21T00:37:51.951Z,67.00
2018-11-21T00:40:20.610Z,68.25
2018-11-21T00:42:49.575Z,64.22
2018-11-21T00:45:18.575Z,66.00
2018-11-21T00:47:47.792Z,64.45
2018-11-21T00:50:16.784Z,62.75
2018-11-21T00:52:46.091Z,64.87
2018-11-21T00:55:15.347Z,69.05
2018-11-21T00:57:44.352Z,65.87
2018-11-21T01:00:13.647Z,67.87
2018-11-21T01:02:42.872Z,61.65
2018-11-21T01:05:12.103Z,74.58
2018-11-21T01:07:41.382Z,65.42
2018-11-21T01:10:10.042Z,64.65
2018-11-21T01:12:39.240Z,61.98
2018-11-21T01:15:08.244Z,60.80
2018-11-21T01:17:36.931Z,66.42
2018-11-21T01:20:06.898Z,66.97
2018-11-21T01:22:35.602Z,66.67
2018-11-21T01:25:04.820Z,65.20
2018-11-21T01:27:34.042Z,63.23
2018-11-21T01:30:03.328Z,63.10
2018-11-21T01:32:32.005Z,62.35
2018-11-21T01:35:00.924Z,63.60
2018-11-21T01:37:30.183Z,67.30
2018-11-21T01:39:59.217Z,64.70
2018-11-21T01:42:28.234Z,65.52
2018-11-21T01:44:56.887Z,65.42
2018-11-21T01:47:25.925Z,67.37
2018-11-21T01:49:55.443Z,62.30
2018-11-21T01:52:24.547Z,63.83
2018-11-21T01:54:53.283Z,69.27
2018-11-21T01:57:22.750Z,63.33
2018-11-21T01:59:51.422Z,66.33
2018-11-21T02:02:20.704Z,65.92
2018-11-21T02:04:50.197Z,70.40
2018-11-21T02:07:19.399Z,63.85
2018-11-21T02:09:48.342Z,68.33
2018-11-21T02:12:17.599Z,63.80
2018-11-21T02:14:46.531Z,64.22
2018-11-21T02:17:16.095Z,67.20
2018-11-21T02:19:45.044Z,66.50
2018-11-21T02:22:13.727Z,63.15
2018-11-21T02:24:43.135Z,63.05
2018-11-21T02:27:12.120Z,68.10
2018-11-21T02:29:41.381Z,66.00
2018-11-21T02:32:10.905Z,61.02
2018-11-21T02:34:40.965Z,63.73
2018-11-21T02:37:09.657Z,63.50
2018-11-21T02:39:38.868Z,63.70
2018-11-21T02:42:08.446Z,62.98
2018-11-21T02:44:37.680Z,65.37
2018-11-21T02:47:06.678Z,60.20
2018-11-21T02:49:35.699Z,63.70
2018-11-21T02:52:04.396Z,57.53
2018-11-21T02:54:33.739Z,60.10
2018-11-21T02:57:35.167Z,55.30
2018-11-21T03:00:09.458Z,58.15
2018-11-21T03:02:38.748Z,58.45
2018-11-21T03:05:07.702Z,58.75
2018-11-21T03:07:37.244Z,61.33
2018-11-21T03:10:06.536Z,57.35
2018-11-21T03:12:35.892Z,58.87
2018-11-21T03:15:04.593Z,57.55
2018-11-21T03:17:34.234Z,54.10
2018-11-21T03:20:03.242Z,54.80
2018-11-21T03:22:32.321Z,55.88
2018-11-21T03:25:01.902Z,56.98
2018-11-21T03:27:31.070Z,55.38
2018-11-21T03:29:59.838Z,58.73
2018-11-21T03:32:28.772Z,54.55
2018-11-21T03:34:58.072Z,54.63
2018-11-21T03:37:27.321Z,49.53
2018-11-21T03:39:56.069Z,57.25
2018-11-21T03:42:25.809Z,55.60
2018-11-21T03:44:54.717Z,50.20
2018-11-21T03:47:23.396Z,51.23
2018-11-21T03:49:52.654Z,52.75
2018-11-21T03:52:21.659Z,57.03
2018-11-21T03:54:50.635Z,51.73
2018-11-21T03:57:19.564Z,56.75
2018-11-21T03:59:48.225Z,52.15
2018-11-21T04:02:17.246Z,51.60
2018-11-21T04:04:45.920Z,55.40
2018-11-21T04:07:15.185Z,54.23
2018-11-21T04:09:44.222Z,55.00
2018-11-21T04:12:13.136Z,53.08
2018-11-21T04:14:42.176Z,52.10
2018-11-21T04:17:10.954Z,57.55
2018-11-21T04:19:39.894Z,55.33
2018-11-21T04:22:09.173Z,53.63
2018-11-21T04:24:37.857Z,57.48
2018-11-21T04:27:06.862Z,52.43
2018-11-21T04:29:36.105Z,58.58
2018-11-21T04:32:05.078Z,56.37
2018-11-21T04:34:34.085Z,59.20
2018-11-21T04:37:03.076Z,54.88
2018-11-21T04:39:31.762Z,56.85
2018-11-21T04:42:00.757Z,53.70
2018-11-21T04:44:29.777Z,50.43
2018-11-21T04:46:59.067Z,56.63
2018-11-21T04:49:28.089Z,58.78
2018-11-21T04:51:57.359Z,61.10
2018-11-21T04:54:26.356Z,55.70
2018-11-21T04:56:55.026Z,53.95
2018-11-21T04:59:24.107Z,54.83
2018-11-21T05:01:53.076Z,55.95
2018-11-21T05:04:22.085Z,51.53
2018-11-21T05:06:51.025Z,60.65
2018-11-21T05:09:20.838Z,54.45
2018-11-21T05:11:49.564Z,59.08
2018-11-21T05:14:18.805Z,57.73
2018-11-21T05:16:47.554Z,55.58
2018-11-21T05:19:16.509Z,55.83
2018-11-21T05:21:45.449Z,57.93
2018-11-21T05:24:14.388Z,57.75
2018-11-21T05:26:43.708Z,58.08
2018-11-21T05:29:12.913Z,53.65
2018-11-21T05:31:42.027Z,55.88
2018-11-21T05:34:10.958Z,56.20
2018-11-21T05:36:40.554Z,60.15
2018-11-21T05:39:11.234Z,58.13
2018-11-21T05:41:40.517Z,61.92
2018-11-21T05:44:09.820Z,58.20
2018-11-21T05:46:38.842Z,62.13
2018-11-21T05:49:08.102Z,56.80
2018-11-21T05:51:38.165Z,58.92
2018-11-21T05:54:06.842Z,60.95
2018-11-21T05:56:36.044Z,58.33
2018-11-21T05:59:05.460Z,60.43
2018-11-21T06:01:34.489Z,59.88
2018-11-21T06:04:03.489Z,60.28
2018-11-21T06:06:32.171Z,57.67
2018-11-21T06:09:02.270Z,61.13
2018-11-21T06:11:31.419Z,62.38
2018-11-21T06:14:00.606Z,60.73
2018-11-21T06:16:29.552Z,61.08
2018-11-21T06:18:58.318Z,61.75
2018-11-21T06:21:27.336Z,59.40
2018-11-21T06:23:56.716Z,52.60
2018-11-21T06:26:25.718Z,60.80
2018-11-21T06:28:54.655Z,53.65
2018-11-21T06:31:24.234Z,55.33
2018-11-21T06:33:53.250Z,58.02
2018-11-21T06:36:22.529Z,61.68
2018-11-21T06:38:51.218Z,63.33
2018-11-21T06:41:20.578Z,60.15
2018-11-21T06:43:50.114Z,60.73
2018-11-21T06:46:19.143Z,61.28
2018-11-21T06:48:48.126Z,59.53
2018-11-21T06:51:17.432Z,58.20
2018-11-21T06:53:46.717Z,64.22
2018-11-21T06:56:15.642Z,66.70
2018-11-21T06:58:44.590Z,66.50
2018-11-21T07:01:14.368Z,62.75
2018-11-21T07:03:44.348Z,60.10
2018-11-21T07:06:13.221Z,63.58
2018-11-21T07:08:42.207Z,68.45
2018-11-21T07:11:11.207Z,69.53
2018-11-21T07:13:40.101Z,62.62
2018-11-21T07:16:09.294Z,64.35
2018-11-21T07:18:38.631Z,67.37
2018-11-21T07:21:07.567Z,66.50
2018-11-21T07:23:36.561Z,62.40
2018-11-21T07:26:06.551Z,67.55
2018-11-21T07:28:35.545Z,67.92
2018-11-21T07:31:04.741Z,67.42
2018-11-21T07:33:34.182Z,66.80
2018-11-21T07:36:02.853Z,65.72
2018-11-21T07:38:31.849Z,78.30
2018-11-21T07:41:00.906Z,72.92
2018-11-21T07:43:30.476Z,72.55
2018-11-21T07:46:00.219Z,71.37
2018-11-21T07:48:30.212Z,70.28
2018-11-21T07:51:02.267Z,68.97
2018-11-21T07:53:28.420Z,72.75
2018-11-21T07:55:57.096Z,67.45
2018-11-21T07:58:26.761Z,72.08
2018-11-21T08:01:24.755Z,68.60
2018-11-21T08:03:55.464Z,70.42
2018-11-21T08:06:37.173Z,73.37
2018-11-21T08:09:25.870Z,70.75
2018-11-21T08:12:20.933Z,69.62
2018-11-21T08:15:08.130Z,76.30
2018-11-21T08:17:45.577Z,76.92
2018-11-21T08:20:29.993Z,71.70
2018-11-21T08:23:24.212Z,72.30
2018-11-21T08:26:11.756Z,78.22
2018-11-21T08:28:40.449Z,78.52
2018-11-21T08:31:10.545Z,76.00
2018-11-21T08:33:39.208Z,83.40
2018-11-21T08:36:07.918Z,75.62
2018-11-21T08:38:37.093Z,74.62
2018-11-21T08:41:05.766Z,77.55
2018-11-21T08:43:35.311Z,89.00
2018-11-21T08:46:04.347Z,78.57
2018-11-21T08:48:33.866Z,94.30
2018-11-21T08:51:03.636Z,98.72
2018-11-21T08:53:32.301Z,96.32
2018-11-21T08:56:01.338Z,107.27
2018-11-21T08:58:30.570Z,105.60
2018-11-21T09:00:59.603Z,108.32
2018-11-21T09:03:28.910Z,112.70
2018-11-21T09:05:57.579Z,103.55
2018-11-21T09:08:26.804Z,106.97
2018-11-21T09:10:55.773Z,94.22
2018-11-21T09:13:25.113Z,94.67
2018-11-21T09:15:53.786Z,101.55
2018-11-21T09:18:23.540Z,104.60
2018-11-21T09:20:52.216Z,93.30
2018-11-21T09:23:21.256Z,97.88
2018-11-21T09:25:49.974Z,101.85
2018-11-21T09:28:19.206Z,105.78
2018-11-21T09:30:48.439Z,100.97
2018-11-21T09:33:17.357Z,101.97
2018-11-21T09:35:46.239Z,103.32
2018-11-21T09:38:15.214Z,100.07
2018-11-21T09:40:44.186Z,94.35
2018-11-21T09:43:13.147Z,100.10
2018-11-21T09:45:42.060Z,104.03
2018-11-21T09:48:11.254Z,104.70
2018-11-21T09:50:40.436Z,101.10
2018-11-21T09:53:09.443Z,98.00
2018-11-21T09:55:40.505Z,106.87
2018-11-21T09:58:07.312Z,110.75
2018-11-21T10:01:12.809Z,105.83
2018-11-21T10:03:42.162Z,109.22
2018-11-21T10:06:14.057Z,116.05
2018-11-21T10:08:47.383Z,111.85
2018-11-21T10:11:16.998Z,106.37
2018-11-21T10:13:45.901Z,101.40
2018-11-21T10:16:14.586Z,102.50
2018-11-21T10:18:44.935Z,112.32
2018-11-21T10:21:15.418Z,105.07
2018-11-21T10:23:45.204Z,103.15
2018-11-21T10:26:13.661Z,104.97
2018-11-21T10:28:43.103Z,102.75
2018-11-21T10:31:12.063Z,106.40
2018-11-21T10:33:41.408Z,100.40
2018-11-21T10:36:10.384Z,93.07
2018-11-21T10:38:39.348Z,96.12
2018-11-21T10:41:08.358Z,97.42
2018-11-21T10:43:37.995Z,100.20
2018-11-21T10:46:07.024Z,106.75
2018-11-21T10:48:35.961Z,95.45
2018-11-21T10:51:04.786Z,99.05
2018-11-21T10:53:34.441Z,108.72
2018-11-21T10:56:03.399Z,99.92
2018-11-21T10:58:32.072Z,106.78
2018-11-21T11:01:18.927Z,93.40
2018-11-21T11:04:15.585Z,95.90
2018-11-21T11:07:15.782Z,86.80
2018-11-21T11:10:02.502Z,94.30
2018-11-21T11:12:48.213Z,96.20
2018-11-21T11:15:33.257Z,94.42
2018-11-21T11:18:12.201Z,86.02
2018-11-21T11:21:06.133Z,94.52
2018-11-21T11:23:52.821Z,92.85
2018-11-21T11:26:48.897Z,102.20
2018-11-21T11:29:35.497Z,99.30
2018-11-21T11:32:16.338Z,99.40
2018-11-21T11:34:59.402Z,102.22
2018-11-21T11:37:59.688Z,111.35
2018-11-21T11:40:46.233Z,110.65
2018-11-21T11:43:24.456Z,104.47
2018-11-21T11:46:09.491Z,110.25
2018-11-21T11:48:57.983Z,111.17
2018-11-21T11:51:44.787Z,110.20
2018-11-21T11:54:21.957Z,104.58
2018-11-21T11:57:16.063Z,105.25
2018-11-21T12:00:03.384Z,103.60
2018-11-21T12:03:00.458Z,107.22
2018-11-21T12:05:51.257Z,94.90
2018-11-21T12:08:45.258Z,106.40
2018-11-21T12:11:32.227Z,101.60
2018-11-21T12:14:13.896Z,99.77
2018-11-21T12:17:01.891Z,97.10
2018-11-21T12:19:55.780Z,94.30
2018-11-21T12:22:46.876Z,95.12
2018-11-21T12:25:37.853Z,102.38
2018-11-21T12:28:34.222Z,99.40
2018-11-21T12:31:25.305Z,95.95
2018-11-21T12:34:10.759Z,98.75
2018-11-21T12:37:01.456Z,106.05
2018-11-21T12:39:37.206Z,99.92
2018-11-21T12:42:23.908Z,96.63
2018-11-21T12:45:10.116Z,100.07
2018-11-21T12:47:57.004Z,102.95
2018-11-21T12:50:46.273Z,97.92
2018-11-21T12:53:27.022Z,99.22
2018-11-21T12:56:14.172Z,98.10
2018-11-21T12:59:10.939Z,100.70
2018-11-21T13:02:01.995Z,96.90
2018-11-21T13:04:48.292Z,94.77
2018-11-21T13:07:23.091Z,92.80
2018-11-21T13:10:15.795Z,102.45
2018-11-21T13:12:53.218Z,93.62
2018-11-21T13:15:43.249Z,90.10
2018-11-21T13:18:25.219Z,89.17
2018-11-21T13:21:08.079Z,102.55
2018-11-21T13:23:49.730Z,88.75
2018-11-21T13:26:36.577Z,87.30
2018-11-21T13:29:33.764Z,83.60
2018-11-21T13:32:20.152Z,78.60
2018-11-21T13:35:02.639Z,94.10
2018-11-21T13:37:57.245Z,87.85
2018-11-21T13:41:03.009Z,94.87
2018-11-21T13:43:41.170Z,92.17
2018-11-21T13:46:27.812Z,93.05
2018-11-21T13:49:15.174Z,88.42
2018-11-21T13:52:03.077Z,86.25
2018-11-21T13:54:49.288Z,92.27
2018-11-21T13:57:19.170Z,87.15
2018-11-21T13:59:48.097Z,98.20
2018-11-21T14:02:17.333Z,92.12
2018-11-21T14:04:46.338Z,87.20
2018-11-21T14:07:15.036Z,97.02
2018-11-21T14:09:44.001Z,96.47
2018-11-21T14:12:12.998Z,95.97
2018-11-21T14:14:41.908Z,92.00
2018-11-21T14:17:11.160Z,99.13
2018-11-21T14:19:40.375Z,98.52
2018-11-21T14:22:09.057Z,93.20
2018-11-21T14:24:37.732Z,95.97
2018-11-21T14:27:06.454Z,93.47
2018-11-21T14:29:35.437Z,95.00
2018-11-21T14:32:04.540Z,92.47
2018-11-21T14:34:33.803Z,97.30
2018-11-21T14:37:03.058Z,99.97
2018-11-21T14:39:32.025Z,98.58
2018-11-21T14:42:00.958Z,94.83
2018-11-21T14:44:29.998Z,96.92
2018-11-21T14:46:59.285Z,91.12
2018-11-21T14:49:27.980Z,92.70
2018-11-21T14:51:57.391Z,93.10
2018-11-21T14:54:26.686Z,98.80
2018-11-21T14:56:55.855Z,91.28
2018-11-21T14:59:24.578Z,91.32
2018-11-21T15:01:53.576Z,89.95
2018-11-21T15:04:22.562Z,92.62
2018-11-21T15:06:51.541Z,91.75
2018-11-21T15:09:20.269Z,89.75
2018-11-21T15:11:49.584Z,88.03
2018-11-21T15:14:18.530Z,90.62
2018-11-21T15:16:47.196Z,84.70
2018-11-21T15:19:16.217Z,95.10
2018-11-21T15:21:45.501Z,92.27
2018-11-21T15:24:14.497Z,87.25
2018-11-21T15:26:43.487Z,92.12
2018-11-21T15:29:12.670Z,93.87
2018-11-21T15:31:41.398Z,89.75
2018-11-21T15:34:10.717Z,97.62
2018-11-21T15:36:39.702Z,91.02
2018-11-21T15:39:09.501Z,89.65
2018-11-21T15:41:38.591Z,89.72
2018-11-21T15:44:07.265Z,88.03
2018-11-21T15:46:36.197Z,86.80
2018-11-21T15:49:05.541Z,88.22
2018-11-21T15:51:34.492Z,93.65
2018-11-21T15:54:03.236Z,88.85
2018-11-21T15:56:32.204Z,90.28
2018-11-21T15:59:01.176Z,90.90
2018-11-21T16:01:30.093Z,96.32
2018-11-21T16:03:59.368Z,95.12
2018-11-21T16:06:28.250Z,91.12
2018-11-21T16:08:57.246Z,92.33
2018-11-21T16:11:26.124Z,94.62
2018-11-21T16:13:55.125Z,94.77
2018-11-21T16:16:23.935Z,100.27
2018-11-21T16:18:52.941Z,96.50
2018-11-21T16:21:21.616Z,93.97
2018-11-21T16:23:50.880Z,95.65
2018-11-21T16:26:19.619Z,95.45
2018-11-21T16:28:48.613Z,98.70
2018-11-21T16:31:17.674Z,94.03
2018-11-21T16:33:46.343Z,100.78
2018-11-21T16:36:15.388Z,101.92
2018-11-21T16:38:44.315Z,99.90
2018-11-21T16:41:13.311Z,97.78
2018-11-21T16:43:41.966Z,98.97
2018-11-21T16:46:11.208Z,101.95
2018-11-21T16:48:39.929Z,98.55
2018-11-21T16:51:08.959Z,93.22
2018-11-21T16:53:38.507Z,89.20
2018-11-21T16:56:07.809Z,101.75
2018-11-21T16:58:37.181Z,94.40
2018-11-21T17:01:05.882Z,98.37
2018-11-21T17:03:35.167Z,98.35
2018-11-21T17:06:03.921Z,103.92
2018-11-21T17:08:33.463Z,109.45
2018-11-21T17:11:02.824Z,99.55
2018-11-21T17:13:31.790Z,112.05
2018-11-21T17:16:00.477Z,94.72
2018-11-21T17:18:29.177Z,101.70
2018-11-21T17:20:58.138Z,94.90
2018-11-21T17:23:27.130Z,98.30
2018-11-21T17:25:56.154Z,94.60
2018-11-21T17:28:24.836Z,98.65
2018-11-21T17:30:54.092Z,101.90
2018-11-21T17:33:23.435Z,91.12
2018-11-21T17:35:52.403Z,98.92
2018-11-21T17:38:21.364Z,95.20
2018-11-21T17:40:50.691Z,99.62
2018-11-21T17:43:19.961Z,97.08
2018-11-21T17:45:49.011Z,102.53
2018-11-21T17:48:18.234Z,96.65
2018-11-21T17:50:47.199Z,90.45
2018-11-21T17:53:15.938Z,92.82
2018-11-21T17:55:44.947Z,97.53
2018-11-21T17:58:14.004Z,99.60
2018-11-21T18:00:42.689Z,93.12
2018-11-21T18:03:11.699Z,106.37
2018-11-21T18:05:41.290Z,98.07
2018-11-21T18:08:09.976Z,105.37
2018-11-21T18:10:40.543Z,97.35
2018-11-21T18:13:09.566Z,104.10
2018-11-21T18:15:38.614Z,101.12
2018-11-21T18:18:07.280Z,102.75
2018-11-21T18:20:36.245Z,99.65
2018-11-21T18:23:04.944Z,105.15
2018-11-21T18:25:44.438Z,109.25
2018-11-21T18:28:13.810Z,113.45
2018-11-21T18:30:42.751Z,111.95
2018-11-21T18:33:12.030Z,123.92
2018-11-21T18:35:40.401Z,109.30
2018-11-21T18:38:09.540Z,114.57
2018-11-21T18:40:39.297Z,118.15
2018-11-21T18:43:08.085Z,112.30
2018-11-21T18:45:41.224Z,118.77
2018-11-21T18:48:11.234Z,114.75
2018-11-21T18:50:40.227Z,107.05
2018-11-21T18:53:09.685Z,119.50
2018-11-21T18:55:40.703Z,127.82
2018-11-21T18:58:37.535Z,117.37
2018-11-21T19:01:06.494Z,115.97
2018-11-21T19:03:35.462Z,112.20
2018-11-21T19:06:04.487Z,118.55
2018-11-21T19:08:34.104Z,100.47
2018-11-21T19:11:03.313Z,117.90
2018-11-21T19:13:32.437Z,117.95
2018-11-21T19:16:01.408Z,122.78
2018-11-21T19:18:30.663Z,113.52
2018-11-21T19:21:00.397Z,113.30
2018-11-21T19:23:29.064Z,124.12
2018-11-21T19:25:57.739Z,118.28
2018-11-21T19:28:26.490Z,121.72
2018-11-21T19:30:55.683Z,116.00
2018-11-21T19:33:24.999Z,120.50
2018-11-21T19:35:54.202Z,118.57
2018-11-21T19:38:23.170Z,128.60
2018-11-21T19:40:51.854Z,121.92
2018-11-21T19:43:20.788Z,114.12
2018-11-21T19:45:49.790Z,114.92
2018-11-21T19:48:18.509Z,118.67
2018-11-21T19:50:47.566Z,111.10
2018-11-21T19:53:16.526Z,110.40
2018-11-21T19:55:45.219Z,109.75
2018-11-21T19:58:14.277Z,103.10
2018-11-21T20:00:43.441Z,107.65
2018-11-21T20:03:12.393Z,109.85
2018-11-21T20:05:41.419Z,107.12
2018-11-21T20:08:10.657Z,97.15
2018-11-21T20:10:39.344Z,100.18
2018-11-21T20:13:08.037Z,94.15
2018-11-21T20:15:37.012Z,97.90
2018-11-21T20:18:06.092Z,104.30
2018-11-21T20:20:35.587Z,106.05
2018-11-21T20:23:06.588Z,101.12
2018-11-21T20:25:33.786Z,99.60
2018-11-21T20:28:02.483Z,103.42
2018-11-21T20:30:33.488Z,93.90
2018-11-21T20:33:02.767Z,98.52
2018-11-21T20:35:31.983Z,105.58
2018-11-21T20:38:01.380Z,111.80
2018-11-21T20:40:32.222Z,99.05
2018-11-21T20:43:01.284Z,101.33
2018-11-21T20:45:30.427Z,110.97
2018-11-21T20:48:00.116Z,102.12
2018-11-21T20:50:29.053Z,108.30
2018-11-21T20:52:58.079Z,102.92
2018-11-21T20:55:28.735Z,102.15
2018-11-21T20:57:57.990Z,102.25
2018-11-21T21:00:28.163Z,102.75
2018-11-21T21:02:56.844Z,107.92
2018-11-21T21:05:26.456Z,97.60
2018-11-21T21:07:56.414Z,102.02
2018-11-21T21:10:30.100Z,102.50
2018-11-21T21:12:58.901Z,91.40
2018-11-21T21:15:27.559Z,105.22
2018-11-21T21:17:56.240Z,100.53
2018-11-21T21:20:26.862Z,101.67
2018-11-21T21:22:57.618Z,94.65
2018-11-21T21:25:28.018Z,94.70
2018-11-21T21:27:57.338Z,95.85
2018-11-21T21:30:27.857Z,114.57
2018-11-21T21:32:56.575Z,117.60
2018-11-21T21:35:26.440Z,117.40
2018-11-21T21:37:55.393Z,113.22
2018-11-21T21:40:24.583Z,118.35
2018-11-21T21:42:53.566Z,116.75
2018-11-21T21:45:24.051Z,105.60
2018-11-21T21:47:52.830Z,104.78
2018-11-21T21:50:23.779Z,112.83
2018-11-21T21:52:52.459Z,111.70
2018-11-21T21:55:22.373Z,118.05
2018-11-21T21:57:51.078Z,115.12
2018-11-21T22:00:23.946Z,117.93
2018-11-21T22:02:53.171Z,112.57
2018-11-21T22:05:22.174Z,127.97
2018-11-21T22:07:51.384Z,122.55
2018-11-21T22:10:20.835Z,126.38
2018-11-21T22:12:49.519Z,117.82
2018-11-21T22:15:28.347Z,115.35
2018-11-21T22:17:58.885Z,112.97
2018-11-21T22:20:27.859Z,116.50
2018-11-21T22:22:57.083Z,112.83
2018-11-21T22:25:26.160Z,109.22
2018-11-21T22:27:55.427Z,113.90
2018-11-21T22:30:24.466Z,100.53
2018-11-21T22:32:54.215Z,104.38
2018-11-21T22:35:25.090Z,108.30
2018-11-21T22:37:53.746Z,114.77
2018-11-21T22:40:23.182Z,103.83
2018-11-21T22:42:52.241Z,108.10
2018-11-21T22:45:21.924Z,113.68
2018-11-21T22:47:50.890Z,112.28
2018-11-21T22:50:23.388Z,103.95
2018-11-21T22:52:52.312Z,115.82
2018-11-21T22:55:21.745Z,110.57
2018-11-21T22:57:51.260Z,111.17
2018-11-21T23:00:22.483Z,118.35
2018-11-21T23:02:51.410Z,124.97
2018-11-21T23:05:20.415Z,125.33
2018-11-21T23:07:50.456Z,115.82
2018-11-21T23:10:26.757Z,120.25
2018-11-21T23:12:55.635Z,126.22
2018-11-21T23:15:24.598Z,132.20
2018-11-21T23:17:53.282Z,117.67
2018-11-21T23:20:21.946Z,118.85
2018-11-21T23:22:50.922Z,117.90
2018-11-21T23:25:20.474Z,109.72
2018-11-21T23:27:49.492Z,112.52
2018-11-21T23:30:19.362Z,112.47
2018-11-21T23:32:48.306Z,114.00
2018-11-21T23:35:18.313Z,121.87
2018-11-21T23:37:47.009Z,125.27
2018-11-21T23:40:16.853Z,115.88
2018-11-21T23:42:50.487Z,122.42
2018-11-21T23:45:19.468Z,108.35
2018-11-21T23:47:48.523Z,115.82
2018-11-21T23:50:18.422Z,103.22
2018-11-21T23:52:47.696Z,99.28
2018-11-21T23:55:19.990Z,99.07
2018-11-21T23:57:48.659Z,106.47
